»·PEaware :: N245LG KSBA-KBUR

N245LG :: KSBA-KBUR

FLIGHT INFORMATION

Flight Status: Arrived
Operator: Privately registered:
United States
More flights under this callsign
Pilot: Erik A. (17503)
Aircraft: CESSNA 172 SKYHAWK
(C172)
More flights by this aircraft type
Origin: KSBA Santa Barbara Mun
United States
Destination: KBUR Bob Hope-Burbank
United States
More flights between these airports :: More routes between these airports
Route: +
File this flight plan on PilotEdge
Remarks:
Altitude:
(Current/Filed)
0ft
Speed:
(Current/Filed)
0kts
Departed: 08-Jan-18 11:45 AM
Arrived: 08-Jan-18 12:32 PM
Distance/Time
Traveled:
75nm/0:46
Distance/Time
To Go:
Arrived

Flight Plot

Page will automatically refresh every two minutes.


Map Options




Map Legend


Flown Route
Filed Route
Departure Airport
Arrival Airport
Navaid (VOR, NDB)
Fix

Horizontal Profiles

Position Reports

Time Latitude Longitude Heading Altitude Ground
Speed
08-Jan-18 11:40 34.421317 -119.836077 346 13ft 0kts
08-Jan-18 11:41 34.421319 -119.836078 346 13ft 0kts
08-Jan-18 11:42 34.421322 -119.836078 346 13ft 0kts
08-Jan-18 11:43 34.421325 -119.836079 346 13ft 0kts
08-Jan-18 11:44 34.421427 -119.836179 309 13ft 5kts
08-Jan-18 11:45 34.424374 -119.837631 345 13ft 15kts
08-Jan-18 11:46 34.428121 -119.838776 343 13ft 13kts
08-Jan-18 11:47 34.430415 -119.838937 163 13ft 0kts
08-Jan-18 11:48 34.430353 -119.838938 208 13ft 1kts
08-Jan-18 11:49 34.430701 -119.839810 252 13ft 0kts
08-Jan-18 11:50 34.430417 -119.840298 160 13ft 7kts
08-Jan-18 11:51 34.421355 -119.837610 163 114ft 80kts
08-Jan-18 11:52 34.402178 -119.832233 167 666ft 87kts
08-Jan-18 11:53 34.377951 -119.827122 167 1320ft 90kts
08-Jan-18 11:54 34.360785 -119.808090 45 1712ft 105kts
08-Jan-18 11:55 34.379407 -119.787333 46 1854ft 113kts
08-Jan-18 11:56 34.396589 -119.756558 70 2108ft 106kts
08-Jan-18 11:57 34.407565 -119.722522 69 2224ft 114kts
08-Jan-18 11:58 34.416880 -119.685106 80 2091ft 115kts
08-Jan-18 11:59 34.422273 -119.646476 83 1940ft 116kts
08-Jan-18 12:00 34.423359 -119.607584 97 1810ft 116kts
08-Jan-18 12:01 34.415030 -119.570083 112 1734ft 114kts
08-Jan-18 12:02 34.400956 -119.535683 118 1703ft 114kts
08-Jan-18 12:03 34.386067 -119.505271 120 2247ft 89kts
08-Jan-18 12:04 34.374547 -119.480670 118 2864ft 84kts
08-Jan-18 12:05 34.363124 -119.456193 122 3393ft 85kts
08-Jan-18 12:06 34.348507 -119.428958 124 3450ft 104kts
08-Jan-18 12:07 34.332092 -119.400710 126 3481ft 100kts
08-Jan-18 12:08 34.316481 -119.373028 122 3544ft 99kts
08-Jan-18 12:09 34.304865 -119.342841 114 3614ft 100kts
08-Jan-18 12:10 34.294024 -119.311464 113 3630ft 104kts
08-Jan-18 12:11 34.282471 -119.279757 114 3668ft 103kts
08-Jan-18 12:12 34.273589 -119.246291 107 3671ft 104kts
08-Jan-18 12:13 34.265201 -119.212396 111 3627ft 107kts
08-Jan-18 12:14 34.257249 -119.178044 105 3620ft 106kts
08-Jan-18 12:15 34.252472 -119.142818 106 3603ft 106kts
08-Jan-18 12:16 34.244732 -119.108311 110 3588ft 105kts
08-Jan-18 12:17 34.233798 -119.075660 117 3601ft 103kts
08-Jan-18 12:18 34.220924 -119.044680 119 3634ft 103kts
08-Jan-18 12:19 34.208175 -119.013365 116 3643ft 103kts
08-Jan-18 12:20 34.196730 -118.981538 112 3706ft 101kts
08-Jan-18 12:21 34.186380 -118.951177 126 3912ft 98kts
08-Jan-18 12:22 34.177622 -118.919478 101 4046ft 105kts
08-Jan-18 12:23 34.174228 -118.883305 97 3973ft 115kts
08-Jan-18 12:24 34.171953 -118.845124 95 3896ft 113kts
08-Jan-18 12:25 34.171908 -118.806972 92 3769ft 114kts
08-Jan-18 12:26 34.172136 -118.769142 89 3681ft 112kts
08-Jan-18 12:27 34.177328 -118.731987 80 3608ft 112kts
08-Jan-18 12:28 34.183918 -118.695064 76 3488ft 112kts
08-Jan-18 12:29 34.192880 -118.659165 78 3403ft 110kts
08-Jan-18 12:30 34.199052 -118.623807 82 3420ft 105kts
08-Jan-18 12:31 34.205071 -118.588679 79 3385ft 107kts
08-Jan-18 12:32 34.210910 -118.553215 82 3334ft 107kts
08-Jan-18 12:33 34.215829 -118.517786 81 3283ft 106kts
08-Jan-18 12:34 34.213215 -118.482555 108 3003ft 112kts
08-Jan-18 12:35 34.201773 -118.447283 105 2506ft 112kts
08-Jan-18 12:36 34.198777 -118.409508 91 1804ft 108kts
08-Jan-18 12:37 34.198084 -118.380601 89 1080ft 68kts
08-Jan-18 12:38 34.197724 -118.360688 115 724ft 19kts
08-Jan-18 12:39 34.197150 -118.360299 180 724ft 0kts
08-Jan-18 12:40 34.197147 -118.360299 180 724ft 0kts
08-Jan-18 12:41 34.195453 -118.360588 76 724ft 0kts
08-Jan-18 12:42 34.195453 -118.360585 76 724ft 0kts
08-Jan-18 12:43 34.195454 -118.360583 76 724ft 0kts
08-Jan-18 12:44 34.195454 -118.360580 76 724ft 0kts
08-Jan-18 12:45 34.195455 -118.360577 76 724ft 0kts
08-Jan-18 12:46 34.195455 -118.360575 76 724ft 0kts
08-Jan-18 12:47 34.195456 -118.360572 76 724ft 0kts
08-Jan-18 12:48 34.195457 -118.360570 76 724ft 0kts
08-Jan-18 12:49 34.195457 -118.360567 76 724ft 0kts
08-Jan-18 12:50 34.195458 -118.360564 76 724ft 0kts
08-Jan-18 12:51 34.195458 -118.360562 76 724ft 0kts
08-Jan-18 12:52 34.195459 -118.360559 76 724ft 0kts

Navigation Log

Ident Type
1. KSBA Airport
2. KBUR Airport